sensor_id;sensor_type;location;lat;lon;timestamp;pressure;altitude;pressure_sealevel;temperature;humidity
15007;BME280;7599;50.748;13.142;2023-08-06T00:02:10;94963.72;;;17.74;76.02
15007;BME280;7599;50.748;13.142;2023-08-06T00:05:24;94961.41;;;17.76;75.75
15007;BME280;7599;50.748;13.142;2023-08-06T00:08:40;94955.94;;;17.73;76.06
15007;BME280;7599;50.748;13.142;2023-08-06T00:11:45;94954.78;;;17.74;76.10
15007;BME280;7599;50.748;13.142;2023-08-06T00:14:50;94946.19;;;17.72;75.77
15007;BME280;7599;50.748;13.142;2023-08-06T00:17:52;94942.38;;;17.76;76.02
15007;BME280;7599;50.748;13.142;2023-08-06T00:21:11;94946.25;;;17.75;76.25
15007;BME280;7599;50.748;13.142;2023-08-06T00:24:14;94932.25;;;17.73;76.08
15007;BME280;7599;50.748;13.142;2023-08-06T00:27:18;94928.00;;;17.76;76.26
15007;BME280;7599;50.748;13.142;2023-08-06T00:30:31;94926.44;;;17.75;76.12
15007;BME280;7599;50.748;13.142;2023-08-06T00:33:33;94926.09;;;17.76;76.33
15007;BME280;7599;50.748;13.142;2023-08-06T00:36:39;94923.72;;;17.75;75.90
15007;BME280;7599;50.748;13.142;2023-08-06T00:39:44;94928.00;;;17.76;75.79
15007;BME280;7599;50.748;13.142;2023-08-06T00:42:49;94921.00;;;17.75;75.75
15007;BME280;7599;50.748;13.142;2023-08-06T00:46:05;94926.03;;;17.73;76.08
15007;BME280;7599;50.748;13.142;2023-08-06T00:49:14;94924.91;;;17.74;76.17
15007;BME280;7599;50.748;13.142;2023-08-06T00:52:22;94925.28;;;17.76;76.09
15007;BME280;7599;50.748;13.142;2023-08-06T00:55:32;94929.16;;;17.75;76.21
15007;BME280;7599;50.748;13.142;2023-08-06T00:58:38;94931.09;;;17.74;76.08
15007;BME280;7599;50.748;13.142;2023-08-06T01:01:45;94927.63;;;17.74;75.94
15007;BME280;7599;50.748;13.142;2023-08-06T01:05:02;94922.13;;;17.70;76.12
15007;BME280;7599;50.748;13.142;2023-08-06T01:08:15;94932.66;;;17.75;75.89
15007;BME280;7599;50.748;13.142;2023-08-06T01:12:05;94934.59;;;17.75;76.12
15007;BME280;7599;50.748;13.142;2023-08-06T01:15:15;94929.94;;;17.75;76.25
15007;BME280;7599;50.748;13.142;2023-08-06T01:18:25;94935.78;;;17.74;76.18
15007;BME280;7599;50.748;13.142;2023-08-06T01:21:29;94930.34;;;17.74;76.01
15007;BME280;7599;50.748;13.142;2023-08-06T01:24:32;94930.69;;;17.72;75.92
15007;BME280;7599;50.748;13.142;2023-08-06T01:27:41;94935.38;;;17.75;75.92
15007;BME280;7599;50.748;13.142;2023-08-06T01:30:47;94928.41;;;17.74;76.08
15007;BME280;7599;50.748;13.142;2023-08-06T01:33:52;94921.78;;;17.75;76.03
15007;BME280;7599;50.748;13.142;2023-08-06T01:37:01;94922.53;;;17.72;75.90
15007;BME280;7599;50.748;13.142;2023-08-06T01:40:42;94910.50;;;17.73;76.04
15007;BME280;7599;50.748;13.142;2023-08-06T01:43:47;94905.06;;;17.73;76.15
15007;BME280;7599;50.748;13.142;2023-08-06T01:47:09;94896.56;;;17.75;75.94
15007;BME280;7599;50.748;13.142;2023-08-06T01:50:13;94892.28;;;17.74;76.17
15007;BME280;7599;50.748;13.142;2023-08-06T01:53:18;94895.00;;;17.74;75.95
15007;BME280;7599;50.748;13.142;2023-08-06T01:56:22;94897.72;;;17.74;76.18
15007;BME280;7599;50.748;13.142;2023-08-06T01:59:49;94886.03;;;17.73;75.99
15007;BME280;7599;50.748;13.142;2023-08-06T02:02:52;94889.94;;;17.72;76.06
15007;BME280;7599;50.748;13.142;2023-08-06T02:05:55;94884.50;;;17.72;76.10
15007;BME280;7599;50.748;13.142;2023-08-06T02:08:59;94885.28;;;17.73;75.91
15007;BME280;7599;50.748;13.142;2023-08-06T02:12:02;94879.47;;;17.74;75.89
15007;BME280;7599;50.748;13.142;2023-08-06T02:15:06;94877.16;;;17.76;76.25
15007;BME280;7599;50.748;13.142;2023-08-06T02:18:09;94868.59;;;17.74;76.03
15007;BME280;7599;50.748;13.142;2023-08-06T02:21:11;94860.81;;;17.73;76.06
15007;BME280;7599;50.748;13.142;2023-08-06T02:24:16;94865.13;;;17.74;75.96
15007;BME280;7599;50.748;13.142;2023-08-06T02:27:18;94851.88;;;17.72;76.01
15007;BME280;7599;50.748;13.142;2023-08-06T02:30:21;94852.66;;;17.73;75.86
15007;BME280;7599;50.748;13.142;2023-08-06T02:33:24;94861.22;;;17.75;76.16
15007;BME280;7599;50.748;13.142;2023-08-06T02:36:27;94850.72;;;17.73;75.95
15007;BME280;7599;50.748;13.142;2023-08-06T02:39:32;94863.94;;;17.75;75.98
15007;BME280;7599;50.748;13.142;2023-08-06T02:42:37;94854.25;;;17.74;76.08
15007;BME280;7599;50.748;13.142;2023-08-06T02:45:41;94857.72;;;17.74;76.12
15007;BME280;7599;50.748;13.142;2023-08-06T02:48:45;94851.91;;;17.76;75.90
15007;BME280;7599;50.748;13.142;2023-08-06T02:52:10;94847.59;;;17.71;76.28
15007;BME280;7599;50.748;13.142;2023-08-06T02:55:14;94840.66;;;17.74;76.15
15007;BME280;7599;50.748;13.142;2023-08-06T02:58:19;94841.78;;;17.73;75.92
15007;BME280;7599;50.748;13.142;2023-08-06T03:01:26;94835.22;;;17.74;75.91
15007;BME280;7599;50.748;13.142;2023-08-06T03:04:31;94845.69;;;17.75;76.19
15007;BME280;7599;50.748;13.142;2023-08-06T03:07:35;94829.78;;;17.74;76.18
15007;BME280;7599;50.748;13.142;2023-08-06T03:10:40;94832.09;;;17.75;76.14
15007;BME280;7599;50.748;13.142;2023-08-06T03:13:43;94824.34;;;17.74;76.37
15007;BME280;7599;50.748;13.142;2023-08-06T03:16:46;94826.31;;;17.77;76.31
15007;BME280;7599;50.748;13.142;2023-08-06T03:19:49;94820.47;;;17.75;76.32
15007;BME280;7599;50.748;13.142;2023-08-06T03:22:52;94819.69;;;17.74;76.05
15007;BME280;7599;50.748;13.142;2023-08-06T03:26:01;94812.31;;;17.75;75.99
15007;BME280;7599;50.748;13.142;2023-08-06T03:29:23;94804.94;;;17.75;76.11
15007;BME280;7599;50.748;13.142;2023-08-06T03:32:28;94803.75;;;17.73;76.28
15007;BME280;7599;50.748;13.142;2023-08-06T03:35:31;94811.94;;;17.76;76.22
15007;BME280;7599;50.748;13.142;2023-08-06T03:38:34;94801.84;;;17.77;76.02
15007;BME280;7599;50.748;13.142;2023-08-06T03:41:41;94796.41;;;17.77;76.49
15007;BME280;7599;50.748;13.142;2023-08-06T03:44:44;94802.22;;;17.75;76.45
15007;BME280;7599;50.748;13.142;2023-08-06T03:47:47;94792.09;;;17.76;76.21
15007;BME280;7599;50.748;13.142;2023-08-06T03:50:50;94786.66;;;17.72;76.02
15007;BME280;7599;50.748;13.142;2023-08-06T03:53:56;94787.47;;;17.76;75.93
15007;BME280;7599;50.748;13.142;2023-08-06T03:57:00;94781.22;;;17.72;76.16
15007;BME280;7599;50.748;13.142;2023-08-06T04:00:03;94783.97;;;17.76;75.93
15007;BME280;7599;50.748;13.142;2023-08-06T04:03:06;94780.88;;;17.74;76.03
15007;BME280;7599;50.748;13.142;2023-08-06T04:06:09;94775.81;;;17.76;76.00
15007;BME280;7599;50.748;13.142;2023-08-06T04:09:12;94773.09;;;17.76;76.37
15007;BME280;7599;50.748;13.142;2023-08-06T04:12:16;94769.19;;;17.73;76.34
15007;BME280;7599;50.748;13.142;2023-08-06T04:15:23;94769.19;;;17.73;76.25
15007;BME280;7599;50.748;13.142;2023-08-06T04:18:26;94765.34;;;17.74;76.07
15007;BME280;7599;50.748;13.142;2023-08-06T04:21:29;94763.34;;;17.71;76.61
15007;BME280;7599;50.748;13.142;2023-08-06T04:24:33;94766.06;;;17.71;76.48
15007;BME280;7599;50.748;13.142;2023-08-06T04:27:37;94769.59;;;17.75;76.17
15007;BME280;7599;50.748;13.142;2023-08-06T04:30:42;94760.66;;;17.75;76.50
15007;BME280;7599;50.748;13.142;2023-08-06T04:33:45;94755.97;;;17.72;76.66
15007;BME280;7599;50.748;13.142;2023-08-06T04:36:48;94757.56;;;17.73;76.18
15007;BME280;7599;50.748;13.142;2023-08-06T04:39:51;94760.31;;;17.76;76.22
15007;BME280;7599;50.748;13.142;2023-08-06T04:42:55;94756.41;;;17.74;76.38
15007;BME280;7599;50.748;13.142;2023-08-06T04:45:59;94763.75;;;17.73;76.38
15007;BME280;7599;50.748;13.142;2023-08-06T04:49:05;94762.22;;;17.72;76.20
15007;BME280;7599;50.748;13.142;2023-08-06T04:52:08;94758.31;;;17.73;76.30
15007;BME280;7599;50.748;13.142;2023-08-06T04:55:13;94759.09;;;17.70;76.20
15007;BME280;7599;50.748;13.142;2023-08-06T04:58:20;94759.13;;;17.74;76.15
15007;BME280;7599;50.748;13.142;2023-08-06T05:01:22;94755.97;;;17.72;76.64
15007;BME280;7599;50.748;13.142;2023-08-06T05:04:26;94755.59;;;17.73;76.25
15007;BME280;7599;50.748;13.142;2023-08-06T05:07:30;94752.88;;;17.73;76.22
15007;BME280;7599;50.748;13.142;2023-08-06T05:10:32;94754.06;;;17.72;76.21
15007;BME280;7599;50.748;13.142;2023-08-06T05:13:37;94752.53;;;17.75;76.22
15007;BME280;7599;50.748;13.142;2023-08-06T05:16:40;94746.28;;;17.71;76.66
15007;BME280;7599;50.748;13.142;2023-08-06T05:19:43;94747.03;;;17.71;76.15
15007;BME280;7599;50.748;13.142;2023-08-06T05:22:46;94744.31;;;17.71;76.33
15007;BME280;7599;50.748;13.142;2023-08-06T05:25:49;94746.69;;;17.73;76.85
15007;BME280;7599;50.748;13.142;2023-08-06T05:28:53;94750.97;;;17.74;76.48
15007;BME280;7599;50.748;13.142;2023-08-06T05:31:56;94740.88;;;17.74;76.74
15007;BME280;7599;50.748;13.142;2023-08-06T05:34:59;94742.00;;;17.73;76.43
15007;BME280;7599;50.748;13.142;2023-08-06T05:38:02;94740.47;;;17.72;76.51
15007;BME280;7599;50.748;13.142;2023-08-06T05:41:05;94731.91;;;17.70;76.40
15007;BME280;7599;50.748;13.142;2023-08-06T05:44:10;94738.94;;;17.75;76.66
15007;BME280;7599;50.748;13.142;2023-08-06T05:47:16;94730.38;;;17.69;76.53
15007;BME280;7599;50.748;13.142;2023-08-06T05:50:21;94736.59;;;17.73;76.76
15007;BME280;7599;50.748;13.142;2023-08-06T05:53:24;94733.88;;;17.73;76.58
15007;BME280;7599;50.748;13.142;2023-08-06T05:56:26;94723.34;;;17.72;76.29
15007;BME280;7599;50.748;13.142;2023-08-06T05:59:44;94735.03;;;17.72;76.29
15007;BME280;7599;50.748;13.142;2023-08-06T06:02:47;94735.41;;;17.71;76.26
15007;BME280;7599;50.748;13.142;2023-08-06T06:05:51;94732.69;;;17.71;76.57
15007;BME280;7599;50.748;13.142;2023-08-06T06:08:54;94726.47;;;17.70;76.40
15007;BME280;7599;50.748;13.142;2023-08-06T06:11:57;94727.66;;;17.69;76.41
15007;BME280;7599;50.748;13.142;2023-08-06T06:15:09;94725.31;;;17.71;76.42
15007;BME280;7599;50.748;13.142;2023-08-06T06:18:13;94720.28;;;17.70;76.24
15007;BME280;7599;50.748;13.142;2023-08-06T06:21:16;94721.44;;;17.69;76.63
15007;BME280;7599;50.748;13.142;2023-08-06T06:24:19;94723.34;;;17.72;76.29
15007;BME280;7599;50.748;13.142;2023-08-06T06:27:21;94720.28;;;17.70;76.31
15007;BME280;7599;50.748;13.142;2023-08-06T06:30:25;94723.00;;;17.73;76.53
15007;BME280;7599;50.748;13.142;2023-08-06T06:33:28;94725.31;;;17.71;76.11
15007;BME280;7599;50.748;13.142;2023-08-06T06:36:31;94716.38;;;17.71;76.42
15007;BME280;7599;50.748;13.142;2023-08-06T06:39:34;94718.72;;;17.69;76.65
15007;BME280;7599;50.748;13.142;2023-08-06T06:42:39;94719.50;;;17.69;76.47
15007;BME280;7599;50.748;13.142;2023-08-06T06:45:43;94724.16;;;17.72;76.34
15007;BME280;7599;50.748;13.142;2023-08-06T06:48:46;94716.38;;;17.71;76.52
15007;BME280;7599;50.748;13.142;2023-08-06T06:51:49;94712.50;;;17.72;76.62
15007;BME280;7599;50.748;13.142;2023-08-06T06:54:54;94720.28;;;17.70;76.65
15007;BME280;7599;50.748;13.142;2023-08-06T06:57:56;94723.00;;;17.70;76.45
15007;BME280;7599;50.748;13.142;2023-08-06T07:05:21;94713.66;;;17.71;76.87
15007;BME280;7599;50.748;13.142;2023-08-06T07:08:25;94713.66;;;17.71;76.68
15007;BME280;7599;50.748;13.142;2023-08-06T07:11:28;94726.06;;;17.72;76.67
15007;BME280;7599;50.748;13.142;2023-08-06T07:14:30;94725.72;;;17.70;76.62
15007;BME280;7599;50.748;13.142;2023-08-06T07:17:33;94724.94;;;17.69;76.21
15007;BME280;7599;50.748;13.142;2023-08-06T07:20:41;94726.06;;;17.72;76.68
15007;BME280;7599;50.748;13.142;2023-08-06T07:23:44;94723.75;;;17.70;76.57
15007;BME280;7599;50.748;13.142;2023-08-06T07:26:48;94720.66;;;17.68;76.76
15007;BME280;7599;50.748;13.142;2023-08-06T07:29:51;94716.00;;;17.69;76.21
15007;BME280;7599;50.748;13.142;2023-08-06T07:33:00;94709.81;;;17.68;76.51
15007;BME280;7599;50.748;13.142;2023-08-06T07:36:12;94711.34;;;17.69;76.32
15007;BME280;7599;50.748;13.142;2023-08-06T07:39:15;94712.13;;;17.70;77.11
15007;BME280;7599;50.748;13.142;2023-08-06T07:42:18;94705.91;;;17.69;76.18
15007;BME280;7599;50.748;13.142;2023-08-06T07:45:24;94699.31;;;17.70;76.68
15007;BME280;7599;50.748;13.142;2023-08-06T07:48:33;94694.25;;;17.65;76.67
15007;BME280;7599;50.748;13.142;2023-08-06T07:51:47;94704.75;;;17.70;76.46
15007;BME280;7599;50.748;13.142;2023-08-06T07:54:53;94712.88;;;17.70;76.81
15007;BME280;7599;50.748;13.142;2023-08-06T07:58:06;94710.94;;;17.67;76.70
15007;BME280;7599;50.748;13.142;2023-08-06T08:01:09;94703.19;;;17.66;76.93
15007;BME280;7599;50.748;13.142;2023-08-06T08:04:12;94710.16;;;17.70;76.58
15007;BME280;7599;50.748;13.142;2023-08-06T08:07:18;94707.47;;;17.70;76.34
15007;BME280;7599;50.748;13.142;2023-08-06T08:10:20;94698.16;;;17.68;76.42
15007;BME280;7599;50.748;13.142;2023-08-06T08:13:23;94688.44;;;17.67;76.13
15007;BME280;7599;50.748;13.142;2023-08-06T08:16:27;94692.31;;;17.69;76.64
15007;BME280;7599;50.748;13.142;2023-08-06T08:19:32;94697.75;;;17.69;76.25
15007;BME280;7599;50.748;13.142;2023-08-06T08:22:55;94684.16;;;17.69;76.44
15007;BME280;7599;50.748;13.142;2023-08-06T08:26:12;94688.06;;;17.68;76.69
15007;BME280;7599;50.748;13.142;2023-08-06T08:29:45;94689.59;;;17.69;76.50
15007;BME280;7599;50.748;13.142;2023-08-06T08:32:48;94686.13;;;17.69;76.88
15007;BME280;7599;50.748;13.142;2023-08-06T08:35:50;94686.13;;;17.69;76.60
15007;BME280;7599;50.748;13.142;2023-08-06T08:38:54;94687.28;;;17.68;76.44
15007;BME280;7599;50.748;13.142;2023-08-06T08:46:45;94665.16;;;17.62;76.31
15007;BME280;7599;50.748;13.142;2023-08-06T08:50:06;94674.06;;;17.66;76.36
15007;BME280;7599;50.748;13.142;2023-08-06T08:53:11;94665.91;;;17.66;76.33
15007;BME280;7599;50.748;13.142;2023-08-06T08:56:16;94663.59;;;17.65;76.33
15007;BME280;7599;50.748;13.142;2023-08-06T08:59:33;94669.81;;;17.69;76.70
15007;BME280;7599;50.748;13.142;2023-08-06T09:02:39;94668.28;;;17.68;76.65
15007;BME280;7599;50.748;13.142;2023-08-06T09:05:44;94677.97;;;17.69;76.47
15007;BME280;7599;50.748;13.142;2023-08-06T09:08:51;94681.44;;;17.69;76.35
15007;BME280;7599;50.748;13.142;2023-08-06T09:12:20;94682.63;;;17.68;76.68
15007;BME280;7599;50.748;13.142;2023-08-06T09:15:24;94681.84;;;17.68;76.51
15007;BME280;7599;50.748;13.142;2023-08-06T09:18:30;94672.53;;;17.65;76.72
15007;BME280;7599;50.748;13.142;2023-08-06T09:21:43;94681.81;;;17.71;76.47
15007;BME280;7599;50.748;13.142;2023-08-06T09:24:58;94671.75;;;17.65;76.77
15007;BME280;7599;50.748;13.142;2023-08-06T09:28:03;94676.78;;;17.63;76.81
15007;BME280;7599;50.748;13.142;2023-08-06T09:31:07;94676.78;;;17.66;76.27
15007;BME280;7599;50.748;13.142;2023-08-06T09:34:10;94671.34;;;17.63;76.53
15007;BME280;7599;50.748;13.142;2023-08-06T09:37:13;94672.94;;;17.64;76.52
15007;BME280;7599;50.748;13.142;2023-08-06T09:40:26;94665.16;;;17.66;76.61
15007;BME280;7599;50.748;13.142;2023-08-06T09:43:44;94658.94;;;17.65;76.24
15007;BME280;7599;50.748;13.142;2023-08-06T09:46:47;94665.91;;;17.66;76.42
15007;BME280;7599;50.748;13.142;2023-08-06T09:49:51;94646.53;;;17.64;76.48
15007;BME280;7599;50.748;13.142;2023-08-06T09:53:00;94649.63;;;17.66;76.65
15007;BME280;7599;50.748;13.142;2023-08-06T09:56:09;94651.56;;;17.66;76.62
15007;BME280;7599;50.748;13.142;2023-08-06T09:59:15;94641.47;;;17.63;76.44
15007;BME280;7599;50.748;13.142;2023-08-06T10:02:21;94640.69;;;17.66;76.39
15007;BME280;7599;50.748;13.142;2023-08-06T10:09:49;94630.59;;;17.63;76.39
15007;BME280;7599;50.748;13.142;2023-08-06T10:12:52;94631.00;;;17.65;76.67
15007;BME280;7599;50.748;13.142;2023-08-06T10:15:59;94627.88;;;17.66;76.69
15007;BME280;7599;50.748;13.142;2023-08-06T10:19:08;94617.81;;;17.63;76.59
15007;BME280;7599;50.748;13.142;2023-08-06T10:22:17;94625.16;;;17.66;76.43
15007;BME280;7599;50.748;13.142;2023-08-06T10:25:25;94617.41;;;17.65;76.29
15007;BME280;7599;50.748;13.142;2023-08-06T10:28:40;94619.72;;;17.66;76.57
15007;BME280;7599;50.748;13.142;2023-08-06T10:31:59;94610.03;;;17.65;76.49
15007;BME280;7599;50.748;13.142;2023-08-06T10:35:03;94603.44;;;17.63;76.58
15007;BME280;7599;50.748;13.142;2023-08-06T10:38:08;94586.75;;;17.64;76.33
15007;BME280;7599;50.748;13.142;2023-08-06T10:41:15;94600.34;;;17.64;76.38
15007;BME280;7599;50.748;13.142;2023-08-06T10:44:21;94597.22;;;17.66;76.71
15007;BME280;7599;50.748;13.142;2023-08-06T10:47:37;94592.97;;;17.65;76.10
15007;BME280;7599;50.748;13.142;2023-08-06T10:50:44;94593.38;;;17.63;76.31
15007;BME280;7599;50.748;13.142;2023-08-06T10:53:52;94590.25;;;17.65;76.17
15007;BME280;7599;50.748;13.142;2023-08-06T10:56:57;94594.50;;;17.62;76.89
15007;BME280;7599;50.748;13.142;2023-08-06T11:00:31;94597.22;;;17.66;76.30
15007;BME280;7599;50.748;13.142;2023-08-06T11:03:39;94579.38;;;17.65;76.53
15007;BME280;7599;50.748;13.142;2023-08-06T11:06:56;94577.44;;;17.65;76.48
15007;BME280;7599;50.748;13.142;2023-08-06T11:10:02;94579.38;;;17.65;76.37
15007;BME280;7599;50.748;13.142;2023-08-06T11:13:06;94573.53;;;17.63;76.63
15007;BME280;7599;50.748;13.142;2023-08-06T11:16:09;94568.50;;;17.65;76.43
15007;BME280;7599;50.748;13.142;2023-08-06T11:19:13;94565.03;;;17.64;76.71
15007;BME280;7599;50.748;13.142;2023-08-06T11:22:18;94562.66;;;17.63;76.34
15007;BME280;7599;50.748;13.142;2023-08-06T11:25:22;94561.91;;;17.62;76.01
15007;BME280;7599;50.748;13.142;2023-08-06T11:28:24;94561.53;;;17.64;76.56
15007;BME280;7599;50.748;13.142;2023-08-06T11:31:28;94565.38;;;17.63;76.40
15007;BME280;7599;50.748;13.142;2023-08-06T11:34:32;94558.03;;;17.63;76.44
15007;BME280;7599;50.748;13.142;2023-08-06T11:37:36;94557.63;;;17.61;76.38
15007;BME280;7599;50.748;13.142;2023-08-06T11:40:56;94563.84;;;17.65;76.40
15007;BME280;7599;50.748;13.142;2023-08-06T11:43:59;94559.97;;;17.63;76.10
15007;BME280;7599;50.748;13.142;2023-08-06T11:47:05;94551.44;;;17.61;76.29
15007;BME280;7599;50.748;13.142;2023-08-06T11:50:21;94554.91;;;17.65;76.49
15007;BME280;7599;50.748;13.142;2023-08-06T11:53:27;94548.31;;;17.62;76.51
15007;BME280;7599;50.748;13.142;2023-08-06T11:56:31;94556.47;;;17.62;76.74
15007;BME280;7599;50.748;13.142;2023-08-06T11:59:34;94555.69;;;17.62;76.47
15007;BME280;7599;50.748;13.142;2023-08-06T12:02:38;94556.88;;;17.64;76.35
15007;BME280;7599;50.748;13.142;2023-08-06T12:05:45;94547.19;;;17.63;76.46
15007;BME280;7599;50.748;13.142;2023-08-06T12:08:48;94537.44;;;17.62;76.62
15007;BME280;7599;50.748;13.142;2023-08-06T12:11:52;94539.78;;;17.64;76.57
15007;BME280;7599;50.748;13.142;2023-08-06T12:14:56;94536.69;;;17.62;76.39
15007;BME280;7599;50.748;13.142;2023-08-06T12:17:59;94545.59;;;17.62;76.57
15007;BME280;7599;50.748;13.142;2023-08-06T12:21:05;94542.50;;;17.64;76.42
15007;BME280;7599;50.748;13.142;2023-08-06T12:24:08;94548.72;;;17.64;76.26
15007;BME280;7599;50.748;13.142;2023-08-06T12:27:13;94546.78;;;17.65;76.33
15007;BME280;7599;50.748;13.142;2023-08-06T12:30:18;94548.72;;;17.64;76.44
15007;BME280;7599;50.748;13.142;2023-08-06T12:33:21;94543.28;;;17.64;76.57
15007;BME280;7599;50.748;13.142;2023-08-06T12:36:25;94542.09;;;17.62;76.49
15007;BME280;7599;50.748;13.142;2023-08-06T12:39:28;94539.03;;;17.63;76.49
15007;BME280;7599;50.748;13.142;2023-08-06T12:42:50;94532.78;;;17.63;76.24
15007;BME280;7599;50.748;13.142;2023-08-06T12:45:54;94528.94;;;17.64;76.43
15007;BME280;7599;50.748;13.142;2023-08-06T12:49:00;94527.34;;;17.63;76.68
15007;BME280;7599;50.748;13.142;2023-08-06T12:52:04;94530.06;;;17.63;76.53
15007;BME280;7599;50.748;13.142;2023-08-06T12:55:10;94525.44;;;17.63;76.12
15007;BME280;7599;50.748;13.142;2023-08-06T12:58:21;94524.63;;;17.63;76.17
15007;BME280;7599;50.748;13.142;2023-08-06T13:01:23;94528.16;;;17.63;76.71
15007;BME280;7599;50.748;13.142;2023-08-06T13:04:26;94526.97;;;17.64;76.61
15007;BME280;7599;50.748;13.142;2023-08-06T13:07:32;94530.88;;;17.63;76.05
15007;BME280;7599;50.748;13.142;2023-08-06T13:10:35;94521.91;;;17.63;76.59
15007;BME280;7599;50.748;13.142;2023-08-06T13:13:38;94513.00;;;17.62;76.40
15007;BME280;7599;50.748;13.142;2023-08-06T13:16:43;94515.34;;;17.64;76.63
15007;BME280;7599;50.748;13.142;2023-08-06T13:20:47;94514.16;;;17.61;76.36
15007;BME280;7599;50.748;13.142;2023-08-06T13:23:59;94512.63;;;17.60;76.10
15007;BME280;7599;50.748;13.142;2023-08-06T13:27:19;94519.59;;;17.61;76.63
15007;BME280;7599;50.748;13.142;2023-08-06T13:30:21;94512.22;;;17.62;76.84
15007;BME280;7599;50.748;13.142;2023-08-06T13:33:24;94507.19;;;17.60;76.28
15007;BME280;7599;50.748;13.142;2023-08-06T13:36:28;94505.25;;;17.61;76.37
15007;BME280;7599;50.748;13.142;2023-08-06T13:39:33;94508.34;;;17.63;76.40
15007;BME280;7599;50.748;13.142;2023-08-06T13:42:36;94499.41;;;17.62;76.57
15007;BME280;7599;50.748;13.142;2023-08-06T13:45:39;94497.09;;;17.61;76.40
15007;BME280;7599;50.748;13.142;2023-08-06T13:48:42;94507.56;;;17.62;76.53
15007;BME280;7599;50.748;13.142;2023-08-06T13:51:50;94510.28;;;17.62;76.35
15007;BME280;7599;50.748;13.142;2023-08-06T13:55:03;94503.31;;;17.61;76.35
15007;BME280;7599;50.748;13.142;2023-08-06T13:58:06;94507.19;;;17.60;76.37
15007;BME280;7599;50.748;13.142;2023-08-06T14:01:11;94507.97;;;17.64;76.25
15007;BME280;7599;50.748;13.142;2023-08-06T14:04:39;94500.97;;;17.63;76.36
15007;BME280;7599;50.748;13.142;2023-08-06T14:07:45;94492.06;;;17.59;76.76
15007;BME280;7599;50.748;13.142;2023-08-06T14:10:49;94492.03;;;17.63;76.55
15007;BME280;7599;50.748;13.142;2023-08-06T14:13:52;94491.25;;;17.62;76.81
15007;BME280;7599;50.748;13.142;2023-08-06T14:16:59;94490.91;;;17.60;76.66
15007;BME280;7599;50.748;13.142;2023-08-06T14:20:03;94494.38;;;17.61;76.27
15007;BME280;7599;50.748;13.142;2023-08-06T14:23:06;94486.22;;;17.61;76.23
15007;BME280;7599;50.748;13.142;2023-08-06T14:26:40;94494.75;;;17.63;76.10
15007;BME280;7599;50.748;13.142;2023-08-06T14:29:50;94497.09;;;17.61;76.57
15007;BME280;7599;50.748;13.142;2023-08-06T14:32:53;94502.53;;;17.61;76.24
15007;BME280;7599;50.748;13.142;2023-08-06T14:35:56;94506.44;;;17.59;76.09
15007;BME280;7599;50.748;13.142;2023-08-06T14:39:15;94509.91;;;17.60;76.49
15007;BME280;7599;50.748;13.142;2023-08-06T14:42:54;94513.41;;;17.61;76.79
15007;BME280;7599;50.748;13.142;2023-08-06T14:46:54;94524.28;;;17.61;76.40
15007;BME280;7599;50.748;13.142;2023-08-06T14:50:01;94522.72;;;17.59;76.49
15007;BME280;7599;50.748;13.142;2023-08-06T14:53:04;94521.56;;;17.61;76.31
15007;BME280;7599;50.748;13.142;2023-08-06T14:56:07;94513.41;;;17.61;76.47
15007;BME280;7599;50.748;13.142;2023-08-06T14:59:12;94509.91;;;17.60;76.13
15007;BME280;7599;50.748;13.142;2023-08-06T15:02:15;94507.19;;;17.60;76.23
15007;BME280;7599;50.748;13.142;2023-08-06T15:05:18;94514.16;;;17.61;76.41
15007;BME280;7599;50.748;13.142;2023-08-06T15:08:23;94516.13;;;17.61;76.67
15007;BME280;7599;50.748;13.142;2023-08-06T15:11:36;94513.00;;;17.62;76.26
15007;BME280;7599;50.748;13.142;2023-08-06T15:15:00;94514.94;;;17.62;76.87
15007;BME280;7599;50.748;13.142;2023-08-06T15:18:06;94514.16;;;17.61;76.54
15007;BME280;7599;50.748;13.142;2023-08-06T15:21:14;94516.88;;;17.61;76.12
15007;BME280;7599;50.748;13.142;2023-08-06T15:28:41;94519.25;;;17.59;76.23
15007;BME280;7599;50.748;13.142;2023-08-06T15:31:59;94516.13;;;17.61;76.55
15007;BME280;7599;50.748;13.142;2023-08-06T15:35:08;94522.31;;;17.61;76.42
15007;BME280;7599;50.748;13.142;2023-08-06T15:38:24;94515.34;;;17.60;76.21
15007;BME280;7599;50.748;13.142;2023-08-06T15:41:30;94523.88;;;17.58;76.48
15007;BME280;7599;50.748;13.142;2023-08-06T15:44:33;94524.66;;;17.59;76.56
15007;BME280;7599;50.748;13.142;2023-08-06T15:47:37;94522.31;;;17.57;76.53
15007;BME280;7599;50.748;13.142;2023-08-06T15:50:42;94531.66;;;17.60;76.36
15007;BME280;7599;50.748;13.142;2023-08-06T15:53:46;94528.94;;;17.60;76.43
15007;BME280;7599;50.748;13.142;2023-08-06T15:56:55;94533.97;;;17.62;76.30
15007;BME280;7599;50.748;13.142;2023-08-06T16:00:06;94530.47;;;17.61;76.44
15007;BME280;7599;50.748;13.142;2023-08-06T16:03:12;94531.66;;;17.60;76.23
15007;BME280;7599;50.748;13.142;2023-08-06T16:06:17;94530.47;;;17.61;76.60
15007;BME280;7599;50.748;13.142;2023-08-06T16:09:36;94530.88;;;17.59;76.27
15007;BME280;7599;50.748;13.142;2023-08-06T16:12:40;94527.75;;;17.57;76.40
15007;BME280;7599;50.748;13.142;2023-08-06T16:16:04;94528.16;;;17.59;76.59
15007;BME280;7599;50.748;13.142;2023-08-06T16:19:26;94535.91;;;17.61;76.68
15007;BME280;7599;50.748;13.142;2023-08-06T16:22:49;94527.38;;;17.59;76.37
15007;BME280;7599;50.748;13.142;2023-08-06T16:25:52;94532.41;;;17.61;76.60
15007;BME280;7599;50.748;13.142;2023-08-06T16:28:55;94523.09;;;17.58;76.19
15007;BME280;7599;50.748;13.142;2023-08-06T16:32:16;94526.59;;;17.58;76.68
15007;BME280;7599;50.748;13.142;2023-08-06T16:39:33;94529.31;;;17.58;76.81
15007;BME280;7599;50.748;13.142;2023-08-06T16:46:57;94535.13;;;17.61;76.49
15007;BME280;7599;50.748;13.142;2023-08-06T16:50:00;94529.31;;;17.58;76.70
15007;BME280;7599;50.748;13.142;2023-08-06T16:53:06;94526.97;;;17.61;76.38
15007;BME280;7599;50.748;13.142;2023-08-06T16:56:11;94523.88;;;17.58;76.48
15007;BME280;7599;50.748;13.142;2023-08-06T16:59:27;94526.22;;;17.60;76.37